Flight Track Log - Related Links

Times and Time Zones

All times are in EDT time to prevent confusion due to time zone crossing. See the EGC585 flight status page for this flight to view local times or setup timezone preferences in your user account.

Time Position Orientation Groundspeed Altitude Reporting Facility
EDT Latitude Longitude Course Direction KTS MPH feet Rate Location/Type
Sat 11:32:51 AM 40.4867 -107.2294 90° East 12 14 6,500  Level Denver Center
Sat 11:33:53 AM 40.4875 -107.2342 283° West 13 15 6,500  Level Denver Center
Sat 11:34:55 AM 40.4836 -107.2264 123° Southeast 25 29 6,500 968 Level Denver Center
Sat 11:35:57 AM 40.4758 -107.1661 100° East 124 143 8,500 1,984 Climbing Denver Center
Sat 11:36:59 AM 40.4875 -107.0831 80° East 189 217 10,600 2,177 Climbing Denver Center
Sat 11:38:00 AM 40.4834 -106.3942 90° East  Level FlightAware Approximate
Sat 11:38:01 AM 40.4861 -106.9825 91° East 248 285 13,000  Level Denver Center
Sat 11:39:00 AM 40.4834 -106.2568 90° East  Level FlightAware Approximate
Sat 11:39:03 AM 40.4878 -106.8814 89° East 272 313 15,500  Level Denver Center
Sat 11:40:05 AM 40.4911 -106.7772 88° East 283 326 17,800 1,790 Climbing Denver Center
Sat 11:41:07 AM 40.4919 -106.6644 89° East 303 349 19,200 1,839 Climbing Denver Center
Sat 11:42:09 AM 40.4933 -106.5464 89° East 319 367 21,600 2,488 Climbing Denver Center
Sat 11:43:10 AM 40.4947 -106.4200 89° East 307 353 24,300 2,244 Climbing Denver Center
Sat 11:44:12 AM 40.4967 -106.3144 89° East 302 348 26,200 1,839 Climbing Denver Center
Sat 11:45:14 AM 40.4969 -106.1864 90° East 313 360 28,100 1,887 Climbing Denver Center
Sat 11:46:16 AM 40.4981 -106.0706 89° East 317 365 30,100 1,790 Climbing Denver Center
Sat 11:47:18 AM 40.4989 -105.9569 89° East 313 360 31,800 1,597 Climbing Denver Center
Sat 11:48:20 AM 40.4994 -105.8411 90° East 316 364 33,400 1,500 Climbing Denver Center
Sat 11:49:22 AM 40.5017 -105.7289 88° East 308 354 34,900 1,403 Climbing Denver Center
Sat 11:50:24 AM 40.5022 -105.6156 90° East 308 354 36,300 1,016 Climbing Denver Center
Sat 11:51:26 AM 40.5022 -105.5033 90° East 307 353 37,000 339 Climbing Denver Center
Sat 11:52:28 AM 40.5022 -105.3633 90° East 340 391 37,000  Level Denver Center
Sat 11:53:30 AM 40.5042 -105.2128 89° East 367 422 37,000  Level Denver Center
Sat 11:54:32 AM 40.5036 -105.0786 90° East 383 441 37,000  Level Denver Center
Sat 11:55:34 AM 40.5044 -104.9300 90° East 380 437 37,000  Level Denver Center
Sat 11:56:36 AM 40.5042 -104.7903 90° East 381 438 37,000  Level Denver Center
Sat 11:57:50 AM 40.5044 -104.6419 90° East 378 435 37,000  Level Denver Center
Sat 11:58:52 AM 40.5069 -104.4661 89° East 393 452 37,000  Level Denver Center
Sat 11:59:54 AM 40.5175 -104.3325 84° East 383 441 37,000  Level Denver Center
Sat 12:00:56 PM 40.5236 -104.1906 87° East 391 450 37,000  Level Denver Center
Sat 12:01:58 PM 40.5314 -104.0414 86° East 373 429 37,000  Level Denver Center
Sat 12:03:00 PM 40.5378 -103.9078 86° East 382 440 37,000  Level Denver Center
Sat 12:04:01 PM 40.5467 -103.7494 86° East 388 447 37,000  Level Denver Center
Sat 12:05:03 PM 40.5531 -103.6153 86° East 386 444 37,000  Level Denver Center
Sat 12:06:05 PM 40.5594 -103.4789 86° East 389 448 37,000  Level Denver Center
Sat 12:07:07 PM 40.5667 -103.3281 86° East 388 447 37,000  Level Denver Center
Sat 12:08:09 PM 40.5739 -103.1678 87° East 394 453 37,000  Level Denver Center
Sat 12:09:11 PM 40.5800 -103.0308 87° East 393 452 37,000  Level Denver Center
Sat 12:10:13 PM 40.5864 -102.8708 87° East 394 453 37,000  Level Denver Center
Sat 12:11:15 PM 40.5925 -102.7319 87° East 396 456 37,000  Level Denver Center
Sat 12:12:16 PM 40.5997 -102.5717 87° East 395 455 37,000  Level Denver Center
Sat 12:13:18 PM 40.6044 -102.4336 87° East 395 455 37,000  Level Denver Center
Sat 12:14:20 PM 40.6097 -102.2950 87° East 396 456 37,000  Level Denver Center
Sat 12:15:22 PM 40.6172 -102.1331 86° East 396 456 37,000  Level Denver Center
Sat 12:16:24 PM 40.6219 -101.9942 87° East 396 456 37,000  Level Denver Center
Sat 12:17:26 PM 40.6267 -101.8317 88° East 398 458 37,000  Level Denver Center
Sat 12:18:28 PM 40.6317 -101.6922 87° East 400 460 37,000  Level Denver Center
Sat 12:19:29 PM 40.6378 -101.5292 87° East 399 459 37,000  Level Denver Center
Sat 12:20:31 PM 40.6419 -101.3883 88° East 402 463 37,000  Level Denver Center
Sat 12:21:33 PM 40.6469 -101.2250 88° East 402 463 37,000  Level Denver Center
Sat 12:22:35 PM 40.6506 -101.0844 88° East 402 463 37,000  Level Denver Center
Sat 12:23:38 PM 40.6544 -100.9208 88° East 403 464 37,000  Level Denver Center
Sat 12:24:39 PM 40.6578 -100.7806 88° East 406 467 37,000 49 Level Denver Center
Sat 12:25:41 PM 40.6617 -100.6156 88° East 410 472 37,100 581 Climbing Denver Center
Sat 12:26:43 PM 40.6656 -100.4781 88° East 398 458 38,200 871 Climbing Denver Center
Sat 12:27:45 PM 40.6686 -100.3181 89° East 395 455 38,900 387 Climbing Denver Center
Sat 12:28:47 PM 40.6717 -100.1783 88° East 400 460 39,000 48 Climbing Denver Center
Sat 12:29:49 PM 40.6747 -100.0067 89° East 419 482 39,000  Level Denver Center
Sat 12:30:51 PM 40.6769 -99.8569 89° East 427 491 39,000  Level Denver Center
Sat 12:31:53 PM 40.6803 -99.6975 88° East 427 491 39,000  Level Denver Center
Sat 12:32:55 PM 40.6817 -99.5428 89° East 425 489 39,000  Level Denver Center
Sat 12:33:57 PM 40.6844 -99.3883 89° East 422 486 39,000  Level Denver Center
Sat 12:34:59 PM 40.6858 -99.2036 89° East 423 487 39,000  Level Denver Center
Sat 12:36:03 PM 40.6881 -99.0517 89° East 422 486 39,000  Level Minneapolis Center
Sat 12:37:04 PM 40.6889 -98.9000 90° East 419 482 39,000  Level Minneapolis Center
Sat 12:38:08 PM 40.6897 -98.7489 90° East 417 480 39,000  Level Minneapolis Center
Sat 12:39:10 PM 40.6906 -98.5667 90° East 418 481 39,000  Level Minneapolis Center
Sat 12:40:12 PM 40.6922 -98.4164 89° East 414 476 39,000  Level Minneapolis Center
Sat 12:41:14 PM 40.6925 -98.2650 90° East 415 478 39,000  Level Minneapolis Center
Sat 12:42:15 PM 40.6922 -98.1128 90° East 417 480 39,000  Level Minneapolis Center
Sat 12:43:17 PM 40.6939 -97.9614 89° East 415 478 39,000  Level Minneapolis Center
Sat 12:44:19 PM 40.6922 -97.8086 91° East 417 480 39,000  Level Minneapolis Center
Sat 12:45:21 PM 40.6922 -97.6258 90° East 417 480 39,000  Level Minneapolis Center
Sat 12:46:23 PM 40.6908 -97.4736 91° East 417 480 39,000  Level Minneapolis Center
Sat 12:47:25 PM 40.6917 -97.3269 90° East 416 479 39,000  Level Minneapolis Center
Sat 12:48:27 PM 40.6903 -97.1739 91° East 419 482 39,000  Level Minneapolis Center
Sat 12:49:28 PM 40.6892 -97.0200 90° East 420 483 39,000  Level Minneapolis Center
Sat 12:50:30 PM 40.6889 -96.8667 90° East 421 484 39,000  Level Minneapolis Center
Sat 12:51:44 PM 40.6858 -96.6508 91° East 422 486 39,000  Level Minneapolis Center
Sat 12:52:46 PM 40.6839 -96.4983 91° East 419 482 39,000  Level Minneapolis Center
Sat 12:53:47 PM 40.6822 -96.3742 91° East 423 487 39,000  Level Minneapolis Center
Sat 12:54:50 PM 40.6800 -96.1928 91° East 418 481 39,000  Level Minneapolis Center
Sat 12:55:51 PM 40.6781 -96.0692 91° East 421 484 39,000  Level Minneapolis Center
Sat 12:56:53 PM 40.6750 -95.8825 91° East 426 490 39,000  Level Minneapolis Center
Sat 12:57:55 PM 40.6717 -95.6972 91° East 425 489 39,000  Level Minneapolis Center
Sat 12:58:57 PM 40.6692 -95.5414 91° East 427 491 39,000  Level Minneapolis Center
Sat 12:59:58 PM 40.6664 -95.3856 91° East 429 494 39,000  Level Minneapolis Center
Sat 01:01:00 PM 40.6628 -95.2294 92° East 428 493 39,000  Level Minneapolis Center
Sat 01:02:02 PM 40.6594 -95.0733 92° East 428 493 39,000  Level Minneapolis Center
Sat 01:03:04 PM 40.6561 -94.9181 92° East 427 491 39,000  Level Minneapolis Center
Sat 01:04:05 PM 40.6489 -94.7297 93° East 429 494 39,000  Level Minneapolis Center
Sat 01:05:07 PM 40.6456 -94.5725 92° East 430 495 39,000  Level Minneapolis Center
Sat 01:06:09 PM 40.6403 -94.4347 93° East 432 497 39,000  Level Minneapolis Center
Sat 01:07:10 PM 40.6358 -94.2467 92° East 432 497 39,000  Level Minneapolis Center
Sat 01:08:12 PM 40.6294 -94.0900 93° East 432 497 39,000  Level Minneapolis Center
Sat 01:09:14 PM 40.6236 -93.9322 93° East 434 499 39,000  Level Minneapolis Center
Sat 01:10:15 PM 40.6189 -93.7753 92° East 433 498 39,000  Level Minneapolis Center
Sat 01:11:29 PM 40.6114 -93.5864 93° East 433 498 39,000  Level Minneapolis Center
Sat 01:12:31 PM 40.6047 -93.4289 93° East 433 498 39,000  Level Minneapolis Center
Sat 01:13:21 PM 40.5983 -93.2711 93° East 431 496 39,000  Level Kansas City Center
Sat 01:14:23 PM 40.5922 -93.1142 93° East 432 497 39,000  Level Kansas City Center
Sat 01:15:25 PM 40.5858 -92.9544 93° East 432 497 39,000  Level Kansas City Center
Sat 01:16:27 PM 40.5786 -92.8039 94° East 431 496 39,000  Level Kansas City Center
Sat 01:17:29 PM 40.5717 -92.6275 93° East 434 499 39,000  Level Kansas City Center
Sat 01:18:31 PM 40.5644 -92.4686 93° East 436 502 39,000  Level Kansas City Center
Sat 01:19:32 PM 40.5572 -92.3192 94° East 438 504 39,000  Level Kansas City Center
Sat 01:20:34 PM 40.5475 -92.1269 94° East 439 505 39,000  Level Kansas City Center
Sat 01:21:36 PM 40.5392 -91.9661 94° East 441 507 39,000  Level Kansas City Center
Sat 01:22:38 PM 40.5308 -91.8056 94° East 441 507 39,000  Level Kansas City Center
Sat 01:23:40 PM 40.5222 -91.6458 94° East 442 509 39,000  Level Kansas City Center
Sat 01:24:42 PM 40.5131 -91.4869 94° East 439 505 39,000  Level Kansas City Center
Sat 01:25:52 PM 40.5033 -91.2819 94° East 441 507 39,000  Level Chicago Center
Sat 01:26:54 PM 40.4936 -91.1206 94° East 444 511 39,000  Level Chicago Center
Sat 01:27:56 PM 40.4839 -90.9600 95° East 443 510 39,000  Level Chicago Center
Sat 01:28:57 PM 40.4739 -90.7994 95° East 443 510 39,000  Level Chicago Center
Sat 01:30:00 PM 40.4642 -90.6381 94° East 443 510 39,000  Level Chicago Center
Sat 01:31:01 PM 40.4544 -90.4786 95° East 442 509 39,000  Level Chicago Center
Sat 01:32:03 PM 40.4411 -90.2856 95° East 444 511 39,000  Level Chicago Center
Sat 01:33:05 PM 40.4300 -90.1267 95° East 443 510 39,000  Level Chicago Center
Sat 01:34:06 PM 40.4189 -89.9667 95° East 445 512 39,000  Level Chicago Center
Sat 01:35:08 PM 40.4075 -89.8086 95° East 442 509 39,000  Level Chicago Center
Sat 01:36:10 PM 40.3964 -89.6506 95° East 441 507 39,000  Level Chicago Center
Sat 01:37:12 PM 40.3828 -89.4594 95° East 441 507 39,000 -48 Level Chicago Center
Sat 01:38:14 PM 40.3711 -89.2992 95° East 444 511 38,900 -537 Descending Chicago Center
Sat 01:39:15 PM 40.3589 -89.1381 96° East 447 514 37,900 -927 Descending Chicago Center
Sat 01:40:17 PM 40.3467 -88.9750 96° East 450 518 37,000 -1,210 Descending Chicago Center
Sat 01:41:19 PM 40.3342 -88.8122 96° East 451 519 35,400 -1,694 Descending Chicago Center
Sat 01:42:21 PM 40.3208 -88.6525 96° East 445 512 33,500 -1,902 Descending Chicago Center
Sat 01:43:22 PM 40.3067 -88.4722 96° East 450 518 31,500 -1,854 Descending Chicago Center
Sat 01:44:24 PM 40.2936 -88.3114 96° East 449 517 29,700 -1,790 Descending Chicago Center
Sat 01:45:26 PM 40.2797 -88.1497 96° East 453 521 27,800 -1,984 Descending Chicago Center
Sat 01:46:28 PM 40.2647 -87.9536 96° East 456 525 25,600 -2,000 Descending Chicago Center
Sat 01:47:08 PM 40.2539 -87.8547 98° East 451 519 24,400 -1,882 Descending Indianapolis Center
Sat 01:48:10 PM 40.2408 -87.7003 96° East 436 502 22,400 -1,902 Descending Indianapolis Center
Sat 01:49:11 PM 40.2289 -87.5522 96° East 418 481 20,500 -1,829 Descending Indianapolis Center
Sat 01:49:32 PM 40.2253 -87.4989 95° East 411 473 19,900 -1,735 Descending Chicago Center
Sat 01:50:34 PM 40.2083 -87.3506 98° East 401 461 18,100 -1,645 Descending Chicago Center
Sat 01:51:36 PM 40.1964 -87.2092 96° East 392 451 16,500 -1,561 Descending Chicago Center
Sat 01:52:37 PM 40.1850 -87.0708 96° East 388 447 14,900 -1,463 Descending Chicago Center
Sat 01:53:39 PM 40.1719 -86.9389 97° East 375 432 13,500 -927 Descending Chicago Center
Sat 01:54:40 PM 40.1200 -86.8081 117° Southeast 347 399 13,000 -300 Descending Chicago Center
Sat 01:55:19 PM 40.0797 -86.7506 132° Southeast 349 402 13,000 -653 Level Indianapolis Center
Sat 01:56:21 PM 40.0169 -86.6594 132° Southeast 342 394 11,900 -1,220 Descending Indianapolis Center
Sat 01:57:22 PM 39.9550 -86.5700 132° Southeast 337 388 10,500 -1,377 Descending Indianapolis Center
Sat 01:58:23 PM 39.9006 -86.4917 132° Southeast 305 351 9,100 -1,317 Descending Indianapolis Center
Sat 01:59:25 PM 39.8506 -86.4192 132° Southeast 280 322 7,800 -1,268 Descending Indianapolis Center
Sat 02:00:26 PM 39.8108 -86.3431 124° Southeast 267 307 6,500 -1,326 Descending Indianapolis Center
Sat 02:00:51 PM 39.8167 -86.3000 80° East 242 278 5,900 -1,200 Descending Indianapolis TRACON
Sat 02:01:51 PM 39.8667 -86.2333 46° Northeast 228 262 4,800 -800 Descending Indianapolis TRACON
Sat 02:02:51 PM 39.8833 -86.1667 72° East 223 257 4,300 -750 Descending Indianapolis TRACON
Sat 02:03:51 PM 39.8167 -86.1500 169° South 201 231 3,300 -800 Descending Indianapolis TRACON
Sat 02:04:51 PM 39.7833 -86.2000 229° Southwest 173 199 2,700 -800 Descending Indianapolis TRACON
Sat 02:05:51 PM 39.7500 -86.2333 218° Southwest 167 192 1,700 -727 Descending Indianapolis TRACON
Sat 02:07:36 PM 39.7153 -86.2892 231° Southwest 146 168 700 -571 Descending Indianapolis Center

Login

Don't have an account? Register now (free) for customized features, flight alerts, and more!